createdAt,value
2022-09-13T00:01:06.077Z,98444.98
2022-09-13T00:03:33.741Z,98439.29
2022-09-13T00:06:11.035Z,98439.02
2022-09-13T00:08:38.516Z,98436.45
2022-09-13T00:11:06.316Z,98435.89
2022-09-13T00:13:33.559Z,98429.74
2022-09-13T00:16:04.107Z,98423.05
2022-09-13T00:18:31.342Z,98430.06
2022-09-13T00:21:10.884Z,98431.79
2022-09-13T00:23:38.465Z,98432.73
2022-09-13T00:26:15.540Z,98435.10
2022-09-13T00:28:42.745Z,98437.87
2022-09-13T00:31:10.342Z,98437.40
2022-09-13T00:33:38.098Z,98430.36
2022-09-13T00:36:10.958Z,98426.84
2022-09-13T00:38:39.621Z,98427.75
2022-09-13T00:41:10.710Z,98437.14
2022-09-13T00:43:59.058Z,98437.60
2022-09-13T00:46:36.243Z,98435.47
2022-09-13T00:49:09.161Z,98429.14
2022-09-13T00:51:36.996Z,98432.48
2022-09-13T00:54:05.168Z,98436.52
2022-09-13T00:56:38.159Z,98443.92
2022-09-13T00:59:13.804Z,98439.85
2022-09-13T01:01:48.342Z,98435.74
2022-09-13T01:04:18.992Z,98435.98
2022-09-13T01:06:46.867Z,98446.45
2022-09-13T01:09:13.973Z,98438.44
2022-09-13T01:11:44.092Z,98439.84
2022-09-13T01:14:12.691Z,98443.58
2022-09-13T01:16:39.991Z,98442.09
2022-09-13T01:19:07.282Z,98437.87
2022-09-13T01:21:56.551Z,98442.77
2022-09-13T01:24:38.958Z,98441.68
2022-09-13T01:27:36.934Z,98447.89
2022-09-13T01:30:23.946Z,98438.77
2022-09-13T01:32:54.066Z,98440.91
2022-09-13T01:35:40.475Z,98445.39
2022-09-13T01:38:07.515Z,98446.20
2022-09-13T01:41:06.922Z,98446.10
2022-09-13T01:43:49.853Z,98445.14
2022-09-13T01:46:31.635Z,98443.93
2022-09-13T01:49:28.378Z,98443.23
2022-09-13T01:52:05.359Z,98446.53
2022-09-13T01:54:50.837Z,98439.05
2022-09-13T01:57:55.890Z,98438.38
2022-09-13T02:00:23.333Z,98436.44
2022-09-13T02:02:56.986Z,98443.96
2022-09-13T02:05:30.332Z,98436.34
2022-09-13T02:08:37.826Z,98434.13
2022-09-13T02:11:17.379Z,98438.55
2022-09-13T02:13:55.882Z,98438.41
2022-09-13T02:16:32.035Z,98441.89
2022-09-13T02:19:07.283Z,98437.65
2022-09-13T02:21:40.195Z,98435.55
2022-09-13T02:24:12.356Z,98441.28
2022-09-13T02:26:42.351Z,98442.87
2022-09-13T02:29:13.472Z,98443.20
2022-09-13T02:32:06.258Z,98437.40
2022-09-13T02:34:48.551Z,98439.27
2022-09-13T02:37:16.009Z,98440.50
2022-09-13T02:40:08.190Z,98436.91
2022-09-13T02:42:43.935Z,98443.36
2022-09-13T02:45:14.326Z,98448.40
2022-09-13T02:48:31.573Z,98440.03
2022-09-13T02:51:07.710Z,98442.14
2022-09-13T02:53:48.494Z,98431.73
2022-09-13T02:56:50.237Z,98430.16
2022-09-13T02:59:20.771Z,98432.23
2022-09-13T03:01:57.315Z,98428.05
2022-09-13T03:04:24.455Z,98433.42
2022-09-13T03:06:51.707Z,98433.23
2022-09-13T03:09:20.008Z,98429.76
2022-09-13T03:11:59.535Z,98430.48
2022-09-13T03:14:39.773Z,98425.02
2022-09-13T03:17:34.148Z,98423.83
2022-09-13T03:20:19.352Z,98425.05
2022-09-13T03:23:12.226Z,98427.97
2022-09-13T03:26:01.289Z,98430.96
2022-09-13T03:29:06.905Z,98444.05
2022-09-13T03:31:55.539Z,98435.92
2022-09-13T03:34:54.157Z,98433.13
2022-09-13T03:37:27.380Z,98438.77
2022-09-13T03:40:11.123Z,98444.25
2022-09-13T03:42:48.549Z,98448.95
2022-09-13T03:45:19.033Z,98441.21
2022-09-13T03:47:49.974Z,98442.78
2022-09-13T03:50:21.636Z,98443.55
2022-09-13T03:52:59.647Z,98448.48
2022-09-13T03:55:27.820Z,98453.64
2022-09-13T03:57:54.854Z,98459.69
2022-09-13T04:00:22.310Z,98454.39
2022-09-13T04:02:49.986Z,98453.25
2022-09-13T04:05:17.846Z,98458.23
2022-09-13T04:07:44.987Z,98459.50
2022-09-13T04:10:13.819Z,98452.80
2022-09-13T04:12:41.647Z,98461.87
2022-09-13T04:15:09.236Z,98454.75
2022-09-13T04:17:36.586Z,98460.96
2022-09-13T04:20:05.207Z,98462.52
2022-09-13T04:22:33.595Z,98461.20
2022-09-13T04:25:02.570Z,98465.45
2022-09-13T04:27:30.070Z,98455.67
2022-09-13T04:29:57.221Z,98463.83
2022-09-13T04:32:24.780Z,98464.18
2022-09-13T04:42:14.405Z,98473.09
2022-09-13T04:44:41.450Z,98475.19
2022-09-13T04:47:08.535Z,98474.34
2022-09-13T04:49:36.365Z,98471.02
2022-09-13T04:52:03.314Z,98480.77
2022-09-13T04:54:30.769Z,98479.23
2022-09-13T04:56:58.122Z,98482.14
2022-09-13T04:59:25.072Z,98478.10
2022-09-13T05:01:52.190Z,98473.23
2022-09-13T05:04:19.162Z,98478.58
2022-09-13T05:06:47.439Z,98490.34
2022-09-13T05:09:15.100Z,98490.56
2022-09-13T05:11:42.761Z,98484.17
2022-09-13T05:14:11.556Z,98483.88
2022-09-13T05:16:39.212Z,98492.98
2022-09-13T05:19:06.772Z,98482.05
2022-09-13T05:21:33.920Z,98483.53
2022-09-13T05:24:01.070Z,98481.92
2022-09-13T05:26:30.724Z,98481.46
2022-09-13T05:28:59.227Z,98481.50
2022-09-13T05:31:38.989Z,98483.35
2022-09-13T05:34:19.746Z,98490.68
2022-09-13T05:36:53.882Z,98486.46
2022-09-13T05:39:36.344Z,98486.05
2022-09-13T05:42:09.389Z,98489.77
2022-09-13T05:44:36.842Z,98504.83
2022-09-13T05:47:03.993Z,98497.30
2022-09-13T05:49:30.948Z,98501.73
2022-09-13T05:51:58.445Z,98500.73
2022-09-13T05:54:25.444Z,98506.77
2022-09-13T05:56:53.720Z,98512.33
2022-09-13T05:59:20.663Z,98511.38
2022-09-13T06:01:48.266Z,98522.86
2022-09-13T06:04:15.479Z,98510.67
2022-09-13T06:06:43.854Z,98516.90
2022-09-13T06:09:12.920Z,98520.73
2022-09-13T06:11:40.102Z,98517.27
2022-09-13T06:14:07.752Z,98524.99
2022-09-13T06:16:35.067Z,98521.40
2022-09-13T06:19:02.265Z,98528.74
2022-09-13T06:21:29.641Z,98526.44
2022-09-13T06:23:56.985Z,98522.08
2022-09-13T06:26:26.274Z,98526.77
2022-09-13T06:28:56.784Z,98525.79
2022-09-13T06:31:26.087Z,98530.16
2022-09-13T06:34:02.067Z,98528.25
2022-09-13T06:36:29.380Z,98528.71
2022-09-13T06:38:56.668Z,98525.91
2022-09-13T06:41:24.536Z,98533.34
2022-09-13T06:43:59.511Z,98532.23
2022-09-13T06:46:29.336Z,98521.79
2022-09-13T06:49:03.805Z,98522.03
2022-09-13T06:51:33.646Z,98523.35
2022-09-13T06:54:03.427Z,98531.34
2022-09-13T06:56:35.961Z,98528.44
2022-09-13T06:59:05.508Z,98526.60
2022-09-13T07:01:33.677Z,98516.10
2022-09-13T07:04:02.271Z,98526.86
2022-09-13T07:06:32.083Z,98514.59
2022-09-13T07:09:00.763Z,98526.45
2022-09-13T07:11:32.934Z,98521.65
2022-09-13T07:14:00.802Z,98521.91
2022-09-13T07:16:30.507Z,98523.88
2022-09-13T07:19:05.024Z,98532.69
2022-09-13T07:21:33.717Z,98532.02
2022-09-13T07:24:01.476Z,98545.66
2022-09-13T07:26:28.938Z,98531.35
2022-09-13T07:28:58.752Z,98534.27
2022-09-13T07:31:25.565Z,98537.59
2022-09-13T07:34:00.336Z,98543.67
2022-09-13T07:36:30.039Z,98542.27
2022-09-13T07:38:58.411Z,98543.32
2022-09-13T07:41:27.524Z,98549.50
2022-09-13T07:43:55.019Z,98539.54
2022-09-13T07:46:25.104Z,98541.16
2022-09-13T07:48:54.489Z,98538.03
2022-09-13T07:51:24.514Z,98534.00
2022-09-13T07:53:57.533Z,98537.90
2022-09-13T07:56:27.403Z,98528.72
2022-09-13T07:58:55.016Z,98532.77
2022-09-13T08:01:24.640Z,98521.38
2022-09-13T08:04:02.982Z,98536.46
2022-09-13T08:06:32.498Z,98536.41
2022-09-13T08:08:59.639Z,98543.34
2022-09-13T08:11:32.625Z,98535.36
2022-09-13T08:14:00.962Z,98540.20
2022-09-13T08:16:29.558Z,98530.63
2022-09-13T08:18:59.718Z,98531.21
2022-09-13T08:21:31.775Z,98527.94
2022-09-13T08:24:00.168Z,98522.83
2022-09-13T08:26:28.378Z,98526.65
2022-09-13T08:29:01.032Z,98527.35
2022-09-13T08:31:29.143Z,98521.22
2022-09-13T08:33:57.218Z,98520.25
2022-09-13T08:36:26.263Z,98516.57
2022-09-13T08:39:00.457Z,98523.70
2022-09-13T08:41:52.973Z,98518.23
2022-09-13T08:44:33.366Z,98513.74
2022-09-13T08:47:03.381Z,98503.08
2022-09-13T08:49:37.460Z,98499.05
2022-09-13T08:52:35.989Z,98505.48
2022-09-13T08:55:19.595Z,98507.33
2022-09-13T08:58:34.585Z,98500.73
2022-09-13T09:01:11.407Z,98500.19
2022-09-13T09:03:52.675Z,98496.50
2022-09-13T09:06:22.134Z,98488.87
2022-09-13T09:09:02.336Z,98490.61
2022-09-13T09:11:55.817Z,98490.92
2022-09-13T09:14:38.086Z,98491.38
2022-09-13T09:17:36.291Z,98493.16
2022-09-13T09:20:24.378Z,98487.58
2022-09-13T09:22:54.625Z,98491.08
2022-09-13T09:25:27.037Z,98489.98
2022-09-13T09:27:55.876Z,98488.54
2022-09-13T09:30:23.049Z,98495.98
2022-09-13T09:32:57.169Z,98494.59
2022-09-13T09:35:32.778Z,98490.69
2022-09-13T09:38:16.730Z,98487.27
2022-09-13T09:40:43.963Z,98494.89
2022-09-13T09:43:19.030Z,98496.61
2022-09-13T09:45:46.511Z,98493.50
2022-09-13T09:48:19.902Z,98491.16
2022-09-13T09:50:53.369Z,98501.09
2022-09-13T09:53:26.461Z,98499.77
2022-09-13T09:56:14.480Z,98493.58
2022-09-13T09:58:44.562Z,98497.73
2022-09-13T10:01:25.427Z,98493.86
2022-09-13T10:04:08.204Z,98489.03
2022-09-13T10:06:41.395Z,98491.47
2022-09-13T10:09:14.102Z,98495.80
2022-09-13T10:11:57.921Z,98501.02
2022-09-13T10:14:35.927Z,98497.23
2022-09-13T10:17:24.784Z,98506.63
2022-09-13T10:20:19.580Z,98501.56
2022-09-13T10:23:09.564Z,98499.08
2022-09-13T10:25:37.238Z,98504.06
2022-09-13T10:28:10.139Z,98502.56
2022-09-13T10:30:42.315Z,98508.89
2022-09-13T10:33:26.836Z,98506.67
2022-09-13T10:35:57.052Z,98502.30
2022-09-13T10:38:33.525Z,98505.70
2022-09-13T10:41:03.748Z,98507.26
2022-09-13T10:43:32.229Z,98506.13
2022-09-13T10:46:02.181Z,98498.73
2022-09-13T10:48:42.911Z,98501.91
2022-09-13T10:51:38.050Z,98500.52
2022-09-13T10:54:14.897Z,98501.80
2022-09-13T10:56:45.332Z,98505.52
2022-09-13T10:59:27.612Z,98506.02
2022-09-13T11:02:19.324Z,98512.27
2022-09-13T11:05:06.363Z,98510.40
2022-09-13T11:08:30.063Z,98511.71
2022-09-13T11:11:15.010Z,98502.19
2022-09-13T11:14:05.334Z,98500.04
2022-09-13T11:16:47.694Z,98495.60
2022-09-13T11:19:42.886Z,98498.73
2022-09-13T11:22:32.700Z,98499.20
2022-09-13T11:25:18.383Z,98501.11
2022-09-13T11:28:10.113Z,98498.36
2022-09-13T11:31:07.881Z,98500.52
2022-09-13T11:34:02.285Z,98497.17
2022-09-13T11:36:46.181Z,98497.84
2022-09-13T11:39:19.648Z,98499.07
2022-09-13T11:42:12.968Z,98496.95
2022-09-13T11:45:01.728Z,98498.12
2022-09-13T11:47:51.080Z,98494.30
2022-09-13T11:50:40.467Z,98494.69
2022-09-13T11:53:10.077Z,98491.94
2022-09-13T11:55:43.127Z,98499.16
2022-09-13T11:58:34.802Z,98500.10
2022-09-13T12:01:06.719Z,98498.20
2022-09-13T12:03:55.507Z,98493.86
2022-09-13T12:06:31.053Z,98495.20
2022-09-13T12:09:15.304Z,98503.51
2022-09-13T12:11:52.727Z,98514.52
2022-09-13T12:14:25.115Z,98512.74
2022-09-13T12:16:59.016Z,98516.21
2022-09-13T12:19:55.004Z,98516.77
2022-09-13T12:22:31.018Z,98514.39
2022-09-13T12:25:03.636Z,98517.02
2022-09-13T12:27:39.614Z,98514.86
2022-09-13T12:30:17.358Z,98514.01
2022-09-13T12:32:46.912Z,98516.34
2022-09-13T12:35:33.003Z,98516.15
2022-09-13T12:38:27.131Z,98515.14
2022-09-13T12:41:12.627Z,98517.29
2022-09-13T12:43:56.399Z,98516.35
2022-09-13T12:46:39.079Z,98517.06
2022-09-13T12:49:30.700Z,98518.91
2022-09-13T12:52:23.205Z,98521.89
2022-09-13T12:55:46.242Z,98517.83
2022-09-13T12:58:20.392Z,98518.36
2022-09-13T13:01:24.918Z,98516.04
2022-09-13T13:04:09.908Z,98513.33
2022-09-13T13:06:47.540Z,98518.06
2022-09-13T13:09:40.493Z,98527.54
2022-09-13T13:12:32.855Z,98531.88
2022-09-13T13:15:02.528Z,98536.20
2022-09-13T13:17:50.696Z,98536.80
2022-09-13T13:20:40.565Z,98536.68
2022-09-13T13:23:32.774Z,98531.33
2022-09-13T13:26:22.992Z,98530.52
2022-09-13T13:29:03.935Z,98523.27
2022-09-13T13:31:31.528Z,98523.96
2022-09-13T13:34:23.178Z,98523.68
2022-09-13T13:37:03.719Z,98524.73
2022-09-13T13:39:31.118Z,98524.12
2022-09-13T13:42:20.629Z,98527.84
2022-09-13T13:44:53.413Z,98524.06
2022-09-13T13:47:20.277Z,98526.40
2022-09-13T13:50:15.176Z,98526.15
2022-09-13T13:52:48.366Z,98535.09
2022-09-13T13:55:30.986Z,98529.27
2022-09-13T13:58:03.554Z,98530.77
2022-09-13T14:00:34.976Z,98534.57
2022-09-13T14:03:01.747Z,98534.60
2022-09-13T14:05:50.376Z,98540.79
2022-09-13T14:08:56.796Z,98541.02
2022-09-13T14:11:37.209Z,98543.61
2022-09-13T14:14:16.362Z,98541.65
2022-09-13T14:17:14.861Z,98540.73
2022-09-13T14:19:55.225Z,98543.81
2022-09-13T14:22:24.716Z,98546.55
2022-09-13T14:24:56.571Z,98545.67
2022-09-13T14:27:26.182Z,98544.23
2022-09-13T14:29:57.044Z,98543.02
2022-09-13T14:32:30.172Z,98544.35
2022-09-13T14:35:05.721Z,98546.67
2022-09-13T14:37:39.180Z,98545.02
2022-09-13T14:40:26.447Z,98543.61
2022-09-13T14:42:56.079Z,98543.08
2022-09-13T14:45:30.502Z,98544.67
2022-09-13T14:48:05.022Z,98548.51
2022-09-13T14:50:36.888Z,98550.69
2022-09-13T14:53:08.252Z,98548.44
2022-09-13T14:55:52.880Z,98540.14
2022-09-13T14:58:28.956Z,98543.97
2022-09-13T15:01:02.302Z,98556.73
2022-09-13T15:03:31.545Z,98555.52
2022-09-13T15:06:02.383Z,98558.77
2022-09-13T15:08:32.092Z,98559.83
2022-09-13T15:11:01.232Z,98555.63
2022-09-13T15:13:30.120Z,98563.41
2022-09-13T15:15:57.468Z,98557.51
2022-09-13T15:18:35.601Z,98560.14
2022-09-13T15:21:16.392Z,98556.95
2022-09-13T15:23:50.366Z,98557.14
2022-09-13T15:26:25.458Z,98561.00
2022-09-13T15:29:02.846Z,98563.69
2022-09-13T15:31:32.447Z,98563.84
2022-09-13T15:34:23.362Z,98557.01
2022-09-13T15:36:59.781Z,98555.30
2022-09-13T15:39:27.080Z,98551.80
2022-09-13T15:41:59.964Z,98551.13
2022-09-13T15:44:32.029Z,98551.42
2022-09-13T15:47:04.295Z,98556.39
2022-09-13T15:49:31.973Z,98554.73
2022-09-13T15:52:01.990Z,98547.84
2022-09-13T15:54:37.574Z,98550.84
2022-09-13T15:57:13.447Z,98545.27
2022-09-13T15:59:41.455Z,98549.55
2022-09-13T16:02:35.724Z,98548.79
2022-09-13T16:05:03.091Z,98550.65
2022-09-13T16:07:30.858Z,98551.38
2022-09-13T16:09:58.415Z,98553.71
2022-09-13T16:12:26.589Z,98548.23
2022-09-13T16:14:54.358Z,98551.56
2022-09-13T16:17:25.701Z,98546.79
2022-09-13T16:19:53.771Z,98549.79
2022-09-13T16:22:21.744Z,98549.67
2022-09-13T16:24:48.585Z,98554.63
2022-09-13T16:27:17.684Z,98552.26
2022-09-13T16:29:45.445Z,98558.02
2022-09-13T16:32:12.393Z,98560.69
2022-09-13T16:34:39.542Z,98564.45
2022-09-13T16:37:06.586Z,98564.67
2022-09-13T16:39:33.634Z,98565.41
2022-09-13T16:42:00.681Z,98567.42
2022-09-13T16:44:27.832Z,98569.44
2022-09-13T16:46:54.850Z,98571.80
2022-09-13T16:49:21.828Z,98573.52
2022-09-13T16:51:48.978Z,98572.41
2022-09-13T16:54:16.329Z,98574.40
2022-09-13T16:56:43.584Z,98571.72
2022-09-13T16:59:11.348Z,98575.80
2022-09-13T17:01:38.816Z,98577.32
2022-09-13T17:04:07.619Z,98571.68
2022-09-13T17:06:34.913Z,98567.51
2022-09-13T17:09:05.923Z,98574.58
2022-09-13T17:11:39.670Z,98568.71
2022-09-13T17:14:09.147Z,98571.30
2022-09-13T17:16:47.212Z,98568.42
2022-09-13T17:19:18.672Z,98569.23
2022-09-13T17:21:46.413Z,98564.30
2022-09-13T17:24:14.488Z,98564.91
2022-09-13T17:26:42.792Z,98568.48
2022-09-13T17:29:13.811Z,98566.39
2022-09-13T17:31:42.671Z,98572.19
2022-09-13T17:34:12.505Z,98567.93
2022-09-13T17:36:41.278Z,98567.15
2022-09-13T17:39:08.868Z,98562.05
2022-09-13T17:41:36.750Z,98565.79
2022-09-13T17:44:04.384Z,98560.95
2022-09-13T17:46:32.124Z,98556.66
2022-09-13T17:48:59.647Z,98552.50
2022-09-13T17:51:29.363Z,98557.48
2022-09-13T17:53:59.767Z,98560.31
2022-09-13T17:56:38.102Z,98558.83
2022-09-13T17:59:12.183Z,98558.17
2022-09-13T18:01:42.376Z,98559.41
2022-09-13T18:04:10.878Z,98556.55
2022-09-13T18:06:44.505Z,98552.70
2022-09-13T18:09:13.323Z,98555.67
2022-09-13T18:11:42.675Z,98552.50
2022-09-13T18:14:13.131Z,98554.81
2022-09-13T18:16:41.687Z,98556.62
2022-09-13T18:19:09.587Z,98557.11
2022-09-13T18:21:36.668Z,98557.80
2022-09-13T18:24:03.926Z,98550.19
2022-09-13T18:26:32.076Z,98548.52
2022-09-13T18:29:04.932Z,98551.34
2022-09-13T18:31:34.498Z,98555.70
2022-09-13T18:34:05.216Z,98554.49
2022-09-13T18:36:33.616Z,98555.78
2022-09-13T18:39:07.320Z,98553.94
2022-09-13T18:41:37.028Z,98553.08
2022-09-13T18:44:06.734Z,98547.23
2022-09-13T18:46:35.190Z,98546.94
2022-09-13T18:49:04.354Z,98547.60
2022-09-13T18:51:40.473Z,98546.98
2022-09-13T18:54:11.726Z,98550.20
2022-09-13T18:56:38.863Z,98548.86
2022-09-13T18:59:07.015Z,98545.51
2022-09-13T19:01:37.564Z,98544.48
2022-09-13T19:04:10.995Z,98543.20
2022-09-13T19:06:41.536Z,98539.81
2022-09-13T19:09:09.962Z,98537.77
2022-09-13T19:11:48.096Z,98533.82
2022-09-13T19:14:26.510Z,98535.38
2022-09-13T19:16:59.990Z,98535.02
2022-09-13T19:19:29.737Z,98536.95
2022-09-13T19:21:56.874Z,98531.83
2022-09-13T19:24:24.087Z,98527.06
2022-09-13T19:26:52.192Z,98525.30
2022-09-13T19:29:23.430Z,98528.38
2022-09-13T19:31:52.010Z,98519.19
2022-09-13T19:34:20.903Z,98520.36
2022-09-13T19:36:49.785Z,98527.48
2022-09-13T19:39:17.043Z,98520.48
2022-09-13T19:41:44.092Z,98518.96
2022-09-13T19:44:14.698Z,98514.13
2022-09-13T19:46:42.472Z,98511.89
2022-09-13T19:49:15.473Z,98512.31
2022-09-13T19:51:47.588Z,98509.14
2022-09-13T19:54:20.119Z,98508.05
2022-09-13T19:56:47.801Z,98505.23
2022-09-13T19:59:19.165Z,98503.08
2022-09-13T20:01:47.614Z,98503.64
2022-09-13T20:04:21.304Z,98499.15
2022-09-13T20:06:50.917Z,98498.89
2022-09-13T20:09:19.987Z,98504.98
2022-09-13T20:11:47.999Z,98507.55
2022-09-13T20:14:17.896Z,98504.85
2022-09-13T20:16:45.353Z,98506.71
2022-09-13T20:19:39.362Z,98506.17
2022-09-13T20:22:07.231Z,98509.98
2022-09-13T20:24:34.678Z,98508.55
2022-09-13T20:27:01.809Z,98508.73
2022-09-13T20:29:28.854Z,98512.56
2022-09-13T20:31:55.904Z,98514.50
2022-09-13T20:34:22.846Z,98515.20
2022-09-13T20:36:49.817Z,98517.06
2022-09-13T20:39:16.840Z,98518.76
2022-09-13T20:41:46.972Z,98521.67
2022-09-13T20:44:14.416Z,98520.48
2022-09-13T20:46:42.857Z,98520.66
2022-09-13T20:49:09.945Z,98522.78
2022-09-13T20:51:38.119Z,98524.05
2022-09-13T20:54:05.196Z,98519.81
2022-09-13T20:56:33.257Z,98525.93
2022-09-13T20:59:00.803Z,98525.86
2022-09-13T21:01:29.836Z,98524.74
2022-09-13T21:03:58.271Z,98529.39
2022-09-13T21:06:27.419Z,98528.96
2022-09-13T21:08:58.644Z,98529.88
2022-09-13T21:11:29.503Z,98529.87
2022-09-13T21:14:07.868Z,98531.21
2022-09-13T21:16:40.761Z,98532.19
2022-09-13T21:19:08.715Z,98522.31
2022-09-13T21:21:39.271Z,98520.26
2022-09-13T21:24:09.171Z,98525.35
2022-09-13T21:26:41.533Z,98524.33
2022-09-13T21:29:09.839Z,98520.19
2022-09-13T21:31:36.854Z,98520.78
2022-09-13T21:34:07.260Z,98517.63
2022-09-13T21:36:35.250Z,98521.36
2022-09-13T21:39:03.833Z,98516.29
2022-09-13T21:41:31.394Z,98511.77
2022-09-13T21:43:58.769Z,98506.95
2022-09-13T21:46:28.336Z,98506.17
2022-09-13T21:49:01.040Z,98501.81
2022-09-13T21:51:33.013Z,98503.33
2022-09-13T21:54:01.956Z,98503.13
2022-09-13T21:56:31.557Z,98504.34
2022-09-13T21:59:01.518Z,98504.75
2022-09-13T22:01:33.030Z,98503.89
2022-09-13T22:04:01.778Z,98498.59
2022-09-13T22:06:34.128Z,98499.34
2022-09-13T22:09:06.970Z,98497.13
2022-09-13T22:11:42.578Z,98497.88
2022-09-13T22:14:12.468Z,98496.14
2022-09-13T22:16:41.098Z,98495.45
2022-09-13T22:19:11.420Z,98497.13
2022-09-13T22:21:42.520Z,98495.65
2022-09-13T22:24:14.301Z,98494.95
2022-09-13T22:26:41.858Z,98493.16
2022-09-13T22:29:09.223Z,98491.86
2022-09-13T22:31:39.495Z,98494.20
2022-09-13T22:34:10.084Z,98496.89
2022-09-13T22:36:37.135Z,98494.33
2022-09-13T22:39:04.550Z,98493.46
2022-09-13T22:41:33.630Z,98497.02
2022-09-13T22:44:02.495Z,98491.75
2022-09-13T22:46:36.136Z,98493.64
2022-09-13T22:49:04.428Z,98491.02
2022-09-13T22:51:32.285Z,98492.26
2022-09-13T22:54:02.474Z,98489.42
2022-09-13T22:56:34.054Z,98488.86
2022-09-13T22:59:07.449Z,98490.19
2022-09-13T23:01:37.514Z,98491.69
2022-09-13T23:04:05.082Z,98488.02
2022-09-13T23:06:34.846Z,98489.96
2022-09-13T23:09:06.293Z,98486.52
2022-09-13T23:11:38.980Z,98487.57
2022-09-13T23:14:10.135Z,98485.10
2022-09-13T23:16:40.516Z,98481.64
2022-09-13T23:19:09.735Z,98482.71
2022-09-13T23:21:38.217Z,98481.24
2022-09-13T23:24:10.282Z,98475.89
2022-09-13T23:26:38.253Z,98474.52
2022-09-13T23:29:05.297Z,98472.25
2022-09-13T23:31:38.262Z,98470.39
2022-09-13T23:34:07.485Z,98470.80
2022-09-13T23:36:38.523Z,98466.77
2022-09-13T23:39:07.828Z,98466.27
2022-09-13T23:41:35.691Z,98465.08
2022-09-13T23:44:03.352Z,98463.96
2022-09-13T23:46:30.809Z,98463.45
2022-09-13T23:48:57.719Z,98464.77
2022-09-13T23:51:26.649Z,98463.51
2022-09-13T23:53:56.457Z,98464.07
2022-09-13T23:56:25.655Z,98463.30
2022-09-13T23:58:57.004Z,98463.27
